createdAt,value
2022-10-07T00:02:26.610Z,100215.41
2022-10-07T00:04:53.443Z,100217.06
2022-10-07T00:07:21.015Z,100216.75
2022-10-07T00:09:47.843Z,100220.75
2022-10-07T00:12:14.832Z,100218.25
2022-10-07T00:14:42.626Z,100230.81
2022-10-07T00:17:09.487Z,100227.53
2022-10-07T00:19:36.413Z,100223.00
2022-10-07T00:22:03.490Z,100217.56
2022-10-07T00:24:30.349Z,100219.91
2022-10-07T00:26:57.128Z,100215.56
2022-10-07T00:29:24.250Z,100214.50
2022-10-07T00:31:56.272Z,100216.72
2022-10-07T00:34:24.013Z,100213.25
2022-10-07T00:36:51.108Z,100202.91
2022-10-07T00:39:18.144Z,100204.66
2022-10-07T00:41:50.457Z,100201.19
2022-10-07T00:44:32.635Z,100201.28
2022-10-07T00:47:04.225Z,100212.13
2022-10-07T00:49:32.076Z,100207.09
2022-10-07T00:51:58.814Z,100193.84
2022-10-07T00:54:25.566Z,100197.22
2022-10-07T00:56:52.649Z,100200.91
2022-10-07T00:59:19.487Z,100193.84
2022-10-07T01:01:46.351Z,100191.56
2022-10-07T01:04:13.803Z,100190.00
2022-10-07T01:06:40.856Z,100195.75
2022-10-07T01:09:07.908Z,100185.44
2022-10-07T01:11:40.991Z,100179.34
2022-10-07T01:14:16.682Z,100178.00
2022-10-07T01:17:08.558Z,100177.81
2022-10-07T01:19:56.847Z,100176.25
2022-10-07T01:22:54.384Z,100177.31
2022-10-07T01:25:40.600Z,100169.59
2022-10-07T01:28:27.416Z,100169.78
2022-10-07T01:30:56.670Z,100173.06
2022-10-07T01:33:27.808Z,100173.56
2022-10-07T01:35:55.432Z,100173.09
2022-10-07T01:38:22.912Z,100163.78
2022-10-07T01:40:54.313Z,100164.19
2022-10-07T01:43:21.349Z,100166.91
2022-10-07T01:45:49.215Z,100166.50
2022-10-07T01:48:16.473Z,100165.72
2022-10-07T01:50:43.333Z,100159.63
2022-10-07T01:53:16.556Z,100162.81
2022-10-07T01:56:25.403Z,100158.50
2022-10-07T01:58:58.384Z,100156.84
2022-10-07T02:01:34.216Z,100155.31
2022-10-07T02:04:07.055Z,100152.50
2022-10-07T02:06:47.110Z,100146.63
2022-10-07T02:09:26.028Z,100146.53
2022-10-07T02:11:57.366Z,100142.16
2022-10-07T02:14:26.644Z,100134.41
2022-10-07T02:16:56.878Z,100141.31
2022-10-07T02:19:45.049Z,100137.78
2022-10-07T02:22:11.846Z,100136.94
2022-10-07T02:24:39.013Z,100134.13
2022-10-07T02:27:11.097Z,100130.00
2022-10-07T02:29:38.584Z,100138.09
2022-10-07T02:32:17.345Z,100131.13
2022-10-07T02:34:44.203Z,100130.28
2022-10-07T02:37:14.840Z,100124.38
2022-10-07T02:39:43.607Z,100131.44
2022-10-07T02:42:17.295Z,100122.72
2022-10-07T02:44:49.121Z,100126.69
2022-10-07T02:47:29.068Z,100121.09
2022-10-07T02:49:57.314Z,100121.09
2022-10-07T02:52:24.186Z,100122.34
2022-10-07T02:55:13.003Z,100120.59
2022-10-07T02:57:42.530Z,100117.81
2022-10-07T03:00:11.317Z,100116.16
2022-10-07T03:02:49.189Z,100107.47
2022-10-07T03:05:19.265Z,100110.34
2022-10-07T03:07:50.978Z,100110.34
2022-10-07T03:10:18.186Z,100104.16
2022-10-07T03:12:45.397Z,100103.69
2022-10-07T03:15:12.204Z,100103.75
2022-10-07T03:17:40.150Z,100106.28
2022-10-07T03:20:08.157Z,100101.38
2022-10-07T03:22:35.144Z,100103.84
2022-10-07T03:25:02.227Z,100103.94
2022-10-07T03:27:29.224Z,100102.22
2022-10-07T03:29:58.508Z,100090.84
2022-10-07T03:32:27.519Z,100091.00
2022-10-07T03:34:54.527Z,100088.13
2022-10-07T03:37:24.708Z,100089.25
2022-10-07T03:39:52.740Z,100085.03
2022-10-07T03:42:21.002Z,100086.75
2022-10-07T03:44:49.620Z,100086.88
2022-10-07T03:47:21.798Z,100083.50
2022-10-07T03:49:48.684Z,100086.69
2022-10-07T03:52:15.784Z,100084.75
2022-10-07T03:54:43.591Z,100085.53
2022-10-07T03:57:28.949Z,100085.63
2022-10-07T03:59:55.996Z,100082.41
2022-10-07T04:02:23.571Z,100073.72
2022-10-07T04:04:53.368Z,100073.81
2022-10-07T04:07:22.119Z,100059.47
2022-10-07T04:09:49.261Z,100064.94
2022-10-07T04:12:16.555Z,100056.84
2022-10-07T04:14:43.668Z,100053.91
2022-10-07T04:17:10.491Z,100059.03
2022-10-07T04:19:37.417Z,100056.00
2022-10-07T04:22:08.887Z,100062.50
2022-10-07T04:24:36.337Z,100057.22
2022-10-07T04:27:06.538Z,100053.81
2022-10-07T04:29:38.292Z,100054.88
2022-10-07T04:32:05.800Z,100052.81
2022-10-07T04:34:32.576Z,100045.59
2022-10-07T04:37:01.185Z,100044.44
2022-10-07T04:39:49.023Z,100039.13
2022-10-07T04:42:33.848Z,100037.41
2022-10-07T04:45:00.663Z,100044.19
2022-10-07T04:47:27.707Z,100033.63
2022-10-07T04:49:55.189Z,100034.44
2022-10-07T04:52:22.256Z,100039.13
2022-10-07T04:54:49.124Z,100029.59
2022-10-07T04:57:16.196Z,100034.00
2022-10-07T04:59:43.335Z,100026.97
2022-10-07T05:02:10.660Z,100031.59
2022-10-07T05:04:37.494Z,100023.50
2022-10-07T05:07:04.851Z,100037.94
2022-10-07T05:09:31.636Z,100018.13
2022-10-07T05:11:58.694Z,100016.41
2022-10-07T05:14:25.507Z,100019.97
2022-10-07T05:16:52.697Z,100017.88
2022-10-07T05:19:20.181Z,100019.72
2022-10-07T05:21:47.045Z,100019.03
2022-10-07T05:24:14.060Z,100029.91
2022-10-07T05:26:40.879Z,100029.00
2022-10-07T05:29:07.966Z,100034.31
2022-10-07T05:31:34.834Z,100031.69
2022-10-07T05:34:02.167Z,100041.88
2022-10-07T05:36:29.245Z,100034.56
2022-10-07T05:38:58.158Z,100032.25
2022-10-07T05:41:25.479Z,100027.66
2022-10-07T05:43:52.338Z,100029.03
2022-10-07T05:46:23.703Z,100032.25
2022-10-07T05:48:51.867Z,100033.13
2022-10-07T05:51:22.755Z,100035.22
2022-10-07T05:53:49.630Z,100030.34
2022-10-07T05:56:18.150Z,100030.69
2022-10-07T05:58:46.095Z,100016.41
2022-10-07T06:01:17.450Z,100022.53
2022-10-07T06:03:48.968Z,100014.78
2022-10-07T06:06:15.953Z,100012.50
2022-10-07T06:08:42.810Z,100015.81
2022-10-07T06:11:28.578Z,100017.72
2022-10-07T06:13:55.797Z,100016.75
2022-10-07T06:16:23.456Z,100016.59
2022-10-07T06:18:52.525Z,100018.22
2022-10-07T06:21:20.128Z,100018.91
2022-10-07T06:23:53.784Z,100016.22
2022-10-07T06:26:21.106Z,100018.72
2022-10-07T06:28:48.299Z,100017.78
2022-10-07T06:31:16.955Z,100017.59
2022-10-07T06:33:44.107Z,100011.94
2022-10-07T06:36:11.881Z,100011.66
2022-10-07T06:38:44.173Z,100010.63
2022-10-07T06:41:11.002Z,100015.63
2022-10-07T06:43:38.082Z,100003.69
2022-10-07T06:46:05.732Z,100006.22
2022-10-07T06:48:33.862Z,100010.38
2022-10-07T06:51:03.363Z,99998.44
2022-10-07T06:53:30.824Z,99986.66
2022-10-07T06:56:01.836Z,99991.88
2022-10-07T06:58:28.980Z,99988.16
2022-10-07T07:00:56.507Z,99993.34
2022-10-07T07:03:23.918Z,99997.50
2022-10-07T07:05:55.082Z,99992.78
2022-10-07T07:08:23.615Z,99995.16
2022-10-07T07:10:51.060Z,99993.97
2022-10-07T07:13:19.805Z,99984.75
2022-10-07T07:15:57.452Z,99987.22
2022-10-07T07:18:25.183Z,99980.59
2022-10-07T07:20:52.104Z,99980.41
2022-10-07T07:23:19.456Z,99977.28
2022-10-07T07:25:46.473Z,99982.41
2022-10-07T07:28:14.989Z,99988.41
2022-10-07T07:30:42.211Z,99978.25
2022-10-07T07:33:09.393Z,99981.63
2022-10-07T07:35:38.071Z,99985.13
2022-10-07T07:38:05.113Z,99973.03
2022-10-07T07:40:31.918Z,99981.72
2022-10-07T07:42:58.981Z,99986.84
2022-10-07T07:45:25.767Z,99989.25
2022-10-07T07:47:52.974Z,99969.34
2022-10-07T07:50:27.067Z,99975.03
2022-10-07T07:52:57.351Z,99980.91
2022-10-07T07:55:24.607Z,99972.59
2022-10-07T07:57:51.615Z,99968.50
2022-10-07T08:00:19.045Z,99966.38
2022-10-07T08:02:46.601Z,99958.72
2022-10-07T08:05:13.521Z,99955.72
2022-10-07T08:07:40.552Z,99958.97
2022-10-07T08:10:07.676Z,99959.53
2022-10-07T08:12:34.719Z,99951.09
2022-10-07T08:15:01.520Z,99943.38
2022-10-07T08:17:28.380Z,99947.59
2022-10-07T08:19:56.244Z,99947.19
2022-10-07T08:22:23.079Z,99951.19
2022-10-07T08:24:49.893Z,99940.72
2022-10-07T08:27:16.945Z,99935.84
2022-10-07T08:29:43.761Z,99942.34
2022-10-07T08:32:10.625Z,99937.16
2022-10-07T08:34:37.675Z,99930.44
2022-10-07T08:37:04.475Z,99931.53
2022-10-07T08:39:31.367Z,99934.31
2022-10-07T08:41:58.407Z,99937.25
2022-10-07T08:44:28.436Z,99933.88
2022-10-07T08:47:02.070Z,99928.66
2022-10-07T08:49:54.496Z,99932.47
2022-10-07T08:52:39.666Z,99926.25
2022-10-07T08:55:33.253Z,99920.06
2022-10-07T08:58:20.726Z,99918.13
2022-10-07T09:00:53.333Z,99919.19
2022-10-07T09:03:26.312Z,99925.53
2022-10-07T09:05:53.351Z,99913.22
2022-10-07T09:08:32.907Z,99909.69
2022-10-07T09:11:15.756Z,99907.13
2022-10-07T09:13:48.163Z,99905.44
2022-10-07T09:16:23.469Z,99900.91
2022-10-07T09:18:54.462Z,99900.22
2022-10-07T09:21:31.427Z,99886.78
2022-10-07T09:24:21.128Z,99886.91
2022-10-07T09:26:48.214Z,99879.63
2022-10-07T09:29:17.373Z,99880.63
2022-10-07T09:31:44.358Z,99881.59
2022-10-07T09:34:27.696Z,99877.88
2022-10-07T09:37:13.499Z,99874.19
2022-10-07T09:39:40.560Z,99872.34
2022-10-07T09:42:09.544Z,99867.84
2022-10-07T09:44:36.349Z,99870.69
2022-10-07T09:47:17.578Z,99866.31
2022-10-07T09:49:45.278Z,99866.00
2022-10-07T09:52:23.551Z,99859.78
2022-10-07T09:54:52.110Z,99851.44
2022-10-07T09:57:29.576Z,99859.06
2022-10-07T10:00:11.731Z,99849.25
2022-10-07T10:02:39.998Z,99841.56
2022-10-07T10:05:23.954Z,99843.47
2022-10-07T10:08:04.998Z,99842.38
2022-10-07T10:10:35.336Z,99839.84
2022-10-07T10:13:03.965Z,99835.00
2022-10-07T10:15:39.677Z,99830.97
2022-10-07T10:18:29.008Z,99826.31
2022-10-07T10:20:56.451Z,99832.06
2022-10-07T10:23:30.346Z,99822.06
2022-10-07T10:26:18.863Z,99815.66
2022-10-07T10:28:47.992Z,99806.78
2022-10-07T10:31:30.939Z,99812.41
2022-10-07T10:34:10.258Z,99805.25
2022-10-07T10:36:38.700Z,99803.56
2022-10-07T10:39:30.010Z,99802.88
2022-10-07T10:41:58.230Z,99796.59
2022-10-07T10:44:47.101Z,99793.88
2022-10-07T10:47:45.374Z,99785.22
2022-10-07T10:50:15.879Z,99787.81
2022-10-07T10:52:49.677Z,99779.78
2022-10-07T10:55:35.076Z,99779.06
2022-10-07T10:58:08.777Z,99775.72
2022-10-07T11:01:00.041Z,99760.50
2022-10-07T11:03:36.809Z,99759.63
2022-10-07T11:06:05.923Z,99758.19
2022-10-07T11:08:38.165Z,99749.81
2022-10-07T11:11:08.805Z,99741.91
2022-10-07T11:13:46.865Z,99741.00
2022-10-07T11:16:39.941Z,99741.13
2022-10-07T11:19:20.177Z,99731.31
2022-10-07T11:21:51.277Z,99726.66
2022-10-07T11:24:35.222Z,99723.88
2022-10-07T11:27:19.250Z,99721.25
2022-10-07T11:29:58.700Z,99713.44
2022-10-07T11:32:40.016Z,99709.91
2022-10-07T11:35:17.889Z,99698.94
2022-10-07T11:37:52.302Z,99693.84
2022-10-07T11:40:19.477Z,99686.03
2022-10-07T11:42:49.996Z,99685.13
2022-10-07T11:45:22.168Z,99681.63
2022-10-07T11:47:52.198Z,99687.63
2022-10-07T11:50:20.956Z,99685.28
2022-10-07T11:52:49.451Z,99675.41
2022-10-07T11:55:27.452Z,99666.56
2022-10-07T11:57:56.654Z,99665.59
2022-10-07T12:00:28.870Z,99663.41
2022-10-07T12:02:56.786Z,99659.34
2022-10-07T12:05:36.171Z,99659.56
2022-10-07T12:08:38.562Z,99653.47
2022-10-07T12:11:12.416Z,99650.53
2022-10-07T12:13:40.345Z,99647.00
2022-10-07T12:16:30.275Z,99649.09
2022-10-07T12:19:06.391Z,99634.06
2022-10-07T12:22:04.750Z,99630.81
2022-10-07T12:24:32.823Z,99628.44
2022-10-07T12:27:07.002Z,99624.19
2022-10-07T12:29:47.071Z,99622.00
2022-10-07T12:32:46.606Z,99623.22
2022-10-07T12:35:35.224Z,99618.41
2022-10-07T12:38:14.200Z,99613.28
2022-10-07T12:41:25.146Z,99610.91
2022-10-07T12:44:21.432Z,99609.25
2022-10-07T12:46:59.559Z,99607.19
2022-10-07T12:50:04.771Z,99593.16
2022-10-07T12:52:34.779Z,99599.88
2022-10-07T12:55:28.513Z,99592.00
2022-10-07T12:58:14.816Z,99586.19
2022-10-07T13:00:49.811Z,99583.13
2022-10-07T13:03:36.592Z,99576.41
2022-10-07T13:06:46.807Z,99568.53
2022-10-07T13:09:35.000Z,99566.34
2022-10-07T13:12:08.172Z,99563.06
2022-10-07T13:14:53.305Z,99554.84
2022-10-07T13:17:40.588Z,99558.97
2022-10-07T13:20:20.144Z,99552.94
2022-10-07T13:22:48.301Z,99545.75
2022-10-07T13:25:18.684Z,99538.03
2022-10-07T13:27:55.987Z,99528.41
2022-10-07T13:30:40.060Z,99532.88
2022-10-07T13:33:28.884Z,99526.91
2022-10-07T13:36:40.732Z,99520.03
2022-10-07T13:39:20.459Z,99513.69
2022-10-07T13:41:48.978Z,99505.28
2022-10-07T13:44:18.499Z,99505.28
2022-10-07T13:47:05.214Z,99497.72
2022-10-07T13:49:38.061Z,99503.22
2022-10-07T13:52:06.330Z,99499.28
2022-10-07T13:54:33.519Z,99489.16
2022-10-07T13:57:02.395Z,99485.38
2022-10-07T13:59:29.305Z,99478.00
2022-10-07T14:01:58.363Z,99472.50
2022-10-07T14:04:26.095Z,99475.94
2022-10-07T14:07:01.908Z,99470.44
2022-10-07T14:09:31.955Z,99463.94
2022-10-07T14:12:05.109Z,99466.50
2022-10-07T14:14:43.166Z,99459.28
2022-10-07T14:17:35.359Z,99457.38
2022-10-07T14:20:05.502Z,99454.66
2022-10-07T14:22:39.443Z,99451.06
2022-10-07T14:25:15.960Z,99443.66
2022-10-07T14:27:45.720Z,99440.06
2022-10-07T14:30:29.514Z,99434.59
2022-10-07T14:33:32.567Z,99431.00
2022-10-07T14:36:19.755Z,99429.94
2022-10-07T14:38:48.168Z,99429.09
2022-10-07T14:41:16.347Z,99421.72
2022-10-07T14:43:44.895Z,99423.59
2022-10-07T14:46:24.592Z,99424.47
2022-10-07T14:48:52.442Z,99419.16
2022-10-07T14:51:25.361Z,99414.72
2022-10-07T14:54:03.807Z,99413.84
2022-10-07T14:56:33.727Z,99412.97
2022-10-07T14:59:00.891Z,99413.47
2022-10-07T15:01:29.726Z,99400.31
2022-10-07T15:03:57.526Z,99402.88
2022-10-07T15:06:24.646Z,99401.34
2022-10-07T15:08:51.477Z,99403.22
2022-10-07T15:11:19.637Z,99399.59
2022-10-07T15:13:47.806Z,99395.16
2022-10-07T15:16:23.407Z,99392.59
2022-10-07T15:18:52.970Z,99390.88
2022-10-07T15:21:21.687Z,99392.78
2022-10-07T15:23:55.161Z,99389.34
2022-10-07T15:26:24.365Z,99385.91
2022-10-07T15:28:56.425Z,99386.97
2022-10-07T15:31:25.040Z,99382.66
2022-10-07T15:33:57.926Z,99375.66
2022-10-07T15:36:25.822Z,99382.34
2022-10-07T15:38:53.220Z,99373.44
2022-10-07T15:41:29.451Z,99373.59
2022-10-07T15:43:58.186Z,99370.38
2022-10-07T15:46:25.091Z,99375.19
2022-10-07T15:48:56.309Z,99377.22
2022-10-07T15:51:27.276Z,99373.63
2022-10-07T15:53:54.211Z,99368.47
2022-10-07T15:56:21.170Z,99369.69
2022-10-07T15:58:48.177Z,99372.97
2022-10-07T16:01:15.614Z,99367.81
2022-10-07T16:03:44.431Z,99363.56
2022-10-07T16:06:22.154Z,99369.22
2022-10-07T16:08:49.797Z,99365.78
2022-10-07T16:11:17.163Z,99365.25
2022-10-07T16:13:45.362Z,99365.44
2022-10-07T16:16:14.782Z,99361.34
2022-10-07T16:18:43.299Z,99367.13
2022-10-07T16:21:24.266Z,99360.13
2022-10-07T16:23:52.267Z,99364.22
2022-10-07T16:26:21.367Z,99359.09
2022-10-07T16:29:08.092Z,99362.38
2022-10-07T16:31:36.729Z,99362.69
2022-10-07T16:34:03.980Z,99358.75
2022-10-07T16:36:30.816Z,99361.66
2022-10-07T16:39:03.155Z,99362.19
2022-10-07T16:41:30.366Z,99358.06
2022-10-07T16:43:57.766Z,99352.91
2022-10-07T16:46:24.992Z,99363.53
2022-10-07T16:48:52.427Z,99364.59
2022-10-07T16:51:24.168Z,99362.34
2022-10-07T16:53:54.312Z,99370.91
2022-10-07T16:56:21.160Z,99372.28
2022-10-07T16:58:48.256Z,99365.56
2022-10-07T17:01:16.163Z,99365.06
2022-10-07T17:03:49.992Z,99361.81
2022-10-07T17:06:18.524Z,99366.78
2022-10-07T17:08:48.326Z,99359.06
2022-10-07T17:11:29.222Z,99357.81
2022-10-07T17:14:07.555Z,99353.84
2022-10-07T17:16:45.569Z,99356.94
2022-10-07T17:19:13.979Z,99361.19
2022-10-07T17:21:42.378Z,99347.16
2022-10-07T17:24:09.697Z,99350.53
2022-10-07T17:26:37.527Z,99347.44
2022-10-07T17:29:09.912Z,99342.31
2022-10-07T17:31:39.124Z,99350.00
2022-10-07T17:34:06.699Z,99340.41
2022-10-07T17:36:33.601Z,99339.22
2022-10-07T17:39:00.489Z,99344.28
2022-10-07T17:41:31.953Z,99342.75
2022-10-07T17:44:00.122Z,99341.34
2022-10-07T17:46:28.519Z,99344.59
2022-10-07T17:48:56.644Z,99343.03
2022-10-07T17:51:27.198Z,99342.53
2022-10-07T17:53:57.164Z,99338.56
2022-10-07T17:56:24.210Z,99336.13
2022-10-07T17:58:51.048Z,99334.19
2022-10-07T18:01:33.905Z,99329.94
2022-10-07T18:04:05.648Z,99325.78
2022-10-07T18:06:36.683Z,99328.00
2022-10-07T18:09:12.726Z,99319.09
2022-10-07T18:11:58.066Z,99320.44
2022-10-07T18:14:43.752Z,99316.31
2022-10-07T18:17:10.634Z,99306.72
2022-10-07T18:19:39.610Z,99317.13
2022-10-07T18:22:06.492Z,99313.84
2022-10-07T18:24:33.560Z,99306.84
2022-10-07T18:27:00.731Z,99311.78
2022-10-07T18:29:28.734Z,99310.22
2022-10-07T18:31:56.372Z,99311.38
2022-10-07T18:34:23.401Z,99304.53
2022-10-07T18:36:55.223Z,99302.97
2022-10-07T18:39:23.753Z,99304.31
2022-10-07T18:41:50.967Z,99298.31
2022-10-07T18:44:17.733Z,99294.16
2022-10-07T18:46:44.957Z,99296.38
2022-10-07T18:49:13.871Z,99289.53
2022-10-07T18:51:41.437Z,99290.97
2022-10-07T18:54:08.554Z,99287.53
2022-10-07T18:56:39.933Z,99289.06
2022-10-07T18:59:08.185Z,99296.56
2022-10-07T19:01:35.112Z,99291.56
2022-10-07T19:04:02.362Z,99287.97
2022-10-07T19:06:30.823Z,99284.84
2022-10-07T19:08:59.181Z,99277.13
2022-10-07T19:11:26.215Z,99278.59
2022-10-07T19:13:56.475Z,99283.38
2022-10-07T19:16:23.460Z,99278.94
2022-10-07T19:18:51.882Z,99282.16
2022-10-07T19:21:20.039Z,99286.50
2022-10-07T19:23:48.080Z,99286.44
2022-10-07T19:26:20.930Z,99280.75
2022-10-07T19:28:49.012Z,99281.91
2022-10-07T19:31:24.382Z,99283.94
2022-10-07T19:33:58.357Z,99283.53
2022-10-07T19:36:25.384Z,99276.66
2022-10-07T19:38:53.244Z,99275.25
2022-10-07T19:41:21.606Z,99276.41
2022-10-07T19:43:49.100Z,99276.91
2022-10-07T19:46:16.328Z,99277.47
2022-10-07T19:48:43.159Z,99277.78
2022-10-07T19:51:14.475Z,99282.38
2022-10-07T19:53:46.570Z,99282.81
2022-10-07T19:56:20.400Z,99279.69
2022-10-07T19:58:54.550Z,99279.31
2022-10-07T20:01:31.924Z,99274.16
2022-10-07T20:04:03.518Z,99277.19
2022-10-07T20:06:30.827Z,99270.47
2022-10-07T20:08:57.785Z,99270.78
2022-10-07T20:11:25.391Z,99272.06
2022-10-07T20:13:54.355Z,99278.69
2022-10-07T20:16:22.906Z,99273.84
2022-10-07T20:18:50.843Z,99273.97
2022-10-07T20:21:23.847Z,99267.84
2022-10-07T20:23:52.201Z,99266.44
2022-10-07T20:26:23.840Z,99268.75
2022-10-07T20:28:51.924Z,99267.00
2022-10-07T20:31:21.341Z,99258.44
2022-10-07T20:33:49.955Z,99259.56
2022-10-07T20:36:18.888Z,99261.59
2022-10-07T20:39:04.494Z,99258.31
2022-10-07T20:41:57.518Z,99258.75
2022-10-07T20:44:24.593Z,99252.91
2022-10-07T20:46:51.985Z,99260.50
2022-10-07T20:49:22.534Z,99263.34
2022-10-07T20:51:52.865Z,99259.22
2022-10-07T20:54:20.559Z,99252.19
2022-10-07T20:56:47.536Z,99258.81
2022-10-07T20:59:14.665Z,99257.38
2022-10-07T21:01:41.658Z,99255.81
2022-10-07T21:04:09.212Z,99262.41
2022-10-07T21:06:36.396Z,99259.81
2022-10-07T21:09:03.458Z,99255.69
2022-10-07T21:11:30.406Z,99266.00
2022-10-07T21:13:57.527Z,99253.53
2022-10-07T21:16:24.771Z,99251.09
2022-10-07T21:18:51.550Z,99264.00
2022-10-07T21:21:18.682Z,99249.84
2022-10-07T21:23:45.489Z,99247.41
2022-10-07T21:26:12.460Z,99240.22
2022-10-07T21:28:39.644Z,99249.41
2022-10-07T21:31:10.480Z,99241.69
2022-10-07T21:33:39.769Z,99245.38
2022-10-07T21:36:08.154Z,99242.25
2022-10-07T21:38:35.027Z,99237.97
2022-10-07T21:41:11.989Z,99240.97
2022-10-07T21:43:40.047Z,99237.56
2022-10-07T21:46:07.091Z,99237.69
2022-10-07T21:48:33.920Z,99236.09
2022-10-07T21:51:05.730Z,99231.97
2022-10-07T21:53:35.553Z,99231.25
2022-10-07T21:56:03.825Z,99233.25
2022-10-07T21:58:31.076Z,99224.66
2022-10-07T22:00:57.918Z,99221.09
2022-10-07T22:03:24.940Z,99225.13
2022-10-07T22:05:51.759Z,99222.53
2022-10-07T22:08:37.244Z,99216.66
2022-10-07T22:11:07.335Z,99226.53
2022-10-07T22:13:40.466Z,99220.38
2022-10-07T22:16:14.864Z,99215.31
2022-10-07T22:18:43.521Z,99209.31
2022-10-07T22:21:19.405Z,99211.19
2022-10-07T22:23:57.022Z,99211.59
2022-10-07T22:26:25.726Z,99203.59
2022-10-07T22:28:52.584Z,99208.47
2022-10-07T22:31:19.521Z,99204.72
2022-10-07T22:33:54.419Z,99208.59
2022-10-07T22:36:22.040Z,99202.59
2022-10-07T22:38:49.257Z,99210.03
2022-10-07T22:41:17.668Z,99205.16
2022-10-07T22:43:45.529Z,99200.13
2022-10-07T22:46:26.132Z,99200.41
2022-10-07T22:48:54.241Z,99194.41
2022-10-07T22:51:21.327Z,99192.84
2022-10-07T22:53:51.466Z,99190.25
2022-10-07T22:56:18.440Z,99189.53
2022-10-07T22:58:50.886Z,99184.41
2022-10-07T23:01:17.766Z,99186.22
2022-10-07T23:03:44.916Z,99186.50
2022-10-07T23:06:12.971Z,99176.78
2022-10-07T23:08:39.952Z,99177.78
2022-10-07T23:11:07.267Z,99180.81
2022-10-07T23:13:35.185Z,99176.34
2022-10-07T23:16:04.044Z,99172.19
2022-10-07T23:18:31.447Z,99175.22
2022-10-07T23:21:08.704Z,99172.75
2022-10-07T23:23:36.665Z,99174.75
2022-10-07T23:26:05.404Z,99166.00
2022-10-07T23:28:34.004Z,99168.88
2022-10-07T23:31:08.508Z,99161.88
2022-10-07T23:33:35.584Z,99160.41
2022-10-07T23:36:05.512Z,99158.72
2022-10-07T23:38:33.234Z,99163.56
2022-10-07T23:41:00.635Z,99160.09
2022-10-07T23:43:28.003Z,99153.81
2022-10-07T23:45:54.732Z,99157.69
2022-10-07T23:48:21.552Z,99157.81
2022-10-07T23:50:49.312Z,99153.66
2022-10-07T23:53:17.296Z,99149.34
2022-10-07T23:55:48.000Z,99147.75
2022-10-07T23:58:15.498Z,99149.63
